sensor_id;sensor_type;location;lat;lon;timestamp;P1;durP1;ratioP1;P2;durP2;ratioP2
67074;SDS011;53990;50.334;18.640;2023-07-02T00:00:05;16.40;;;13.20;;
67074;SDS011;53990;50.334;18.640;2023-07-02T00:02:33;15.20;;;11.70;;
67074;SDS011;53990;50.334;18.640;2023-07-02T00:05:00;16.20;;;13.10;;
67074;SDS011;53990;50.334;18.640;2023-07-02T00:07:27;15.90;;;12.00;;
67074;SDS011;53990;50.334;18.640;2023-07-02T00:09:54;15.00;;;11.50;;
67074;SDS011;53990;50.334;18.640;2023-07-02T00:12:20;17.00;;;12.60;;
67074;SDS011;53990;50.334;18.640;2023-07-02T00:14:48;18.50;;;11.80;;
67074;SDS011;53990;50.334;18.640;2023-07-02T00:17:15;16.10;;;11.50;;
67074;SDS011;53990;50.334;18.640;2023-07-02T00:19:41;16.80;;;11.50;;
67074;SDS011;53990;50.334;18.640;2023-07-02T00:22:09;15.90;;;11.70;;
67074;SDS011;53990;50.334;18.640;2023-07-02T00:24:36;17.00;;;12.80;;
67074;SDS011;53990;50.334;18.640;2023-07-02T00:27:03;15.60;;;11.80;;
67074;SDS011;53990;50.334;18.640;2023-07-02T00:29:30;16.20;;;12.00;;
67074;SDS011;53990;50.334;18.640;2023-07-02T00:31:57;16.90;;;12.40;;
67074;SDS011;53990;50.334;18.640;2023-07-02T00:34:24;18.50;;;12.80;;
67074;SDS011;53990;50.334;18.640;2023-07-02T00:36:52;20.60;;;12.30;;
67074;SDS011;53990;50.334;18.640;2023-07-02T00:39:18;15.60;;;12.00;;
67074;SDS011;53990;50.334;18.640;2023-07-02T00:41:45;20.30;;;13.80;;
67074;SDS011;53990;50.334;18.640;2023-07-02T00:44:15;16.40;;;13.20;;
67074;SDS011;53990;50.334;18.640;2023-07-02T00:46:42;17.20;;;13.50;;
67074;SDS011;53990;50.334;18.640;2023-07-02T00:49:09;16.60;;;12.20;;
67074;SDS011;53990;50.334;18.640;2023-07-02T00:51:36;16.00;;;12.90;;
67074;SDS011;53990;50.334;18.640;2023-07-02T00:54:06;17.40;;;12.90;;
67074;SDS011;53990;50.334;18.640;2023-07-02T00:56:33;17.30;;;11.70;;
67074;SDS011;53990;50.334;18.640;2023-07-02T00:59:00;19.40;;;12.80;;
67074;SDS011;53990;50.334;18.640;2023-07-02T01:01:28;16.20;;;12.30;;
67074;SDS011;53990;50.334;18.640;2023-07-02T01:04:04;15.70;;;12.00;;
67074;SDS011;53990;50.334;18.640;2023-07-02T01:06:37;16.20;;;12.90;;
67074;SDS011;53990;50.334;18.640;2023-07-02T01:09:07;17.30;;;13.30;;
67074;SDS011;53990;50.334;18.640;2023-07-02T01:14:14;19.70;;;13.40;;
67074;SDS011;53990;50.334;18.640;2023-07-02T01:16:42;18.90;;;12.60;;
67074;SDS011;53990;50.334;18.640;2023-07-02T01:19:13;17.20;;;13.80;;
67074;SDS011;53990;50.334;18.640;2023-07-02T01:21:41;16.80;;;13.20;;
67074;SDS011;53990;50.334;18.640;2023-07-02T01:24:08;19.40;;;13.10;;
67074;SDS011;53990;50.334;18.640;2023-07-02T01:26:34;18.30;;;13.10;;
67074;SDS011;53990;50.334;18.640;2023-07-02T01:29:18;19.00;;;13.30;;
67074;SDS011;53990;50.334;18.640;2023-07-02T01:31:47;19.50;;;14.00;;
67074;SDS011;53990;50.334;18.640;2023-07-02T01:34:14;18.40;;;13.20;;
67074;SDS011;53990;50.334;18.640;2023-07-02T01:36:41;20.80;;;15.00;;
67074;SDS011;53990;50.334;18.640;2023-07-02T01:39:08;18.90;;;14.10;;
67074;SDS011;53990;50.334;18.640;2023-07-02T01:41:48;19.10;;;14.40;;
67074;SDS011;53990;50.334;18.640;2023-07-02T01:44:15;18.90;;;14.40;;
67074;SDS011;53990;50.334;18.640;2023-07-02T01:46:43;18.80;;;14.20;;
67074;SDS011;53990;50.334;18.640;2023-07-02T01:49:11;18.80;;;14.90;;
67074;SDS011;53990;50.334;18.640;2023-07-02T01:51:38;18.90;;;15.30;;
67074;SDS011;53990;50.334;18.640;2023-07-02T01:54:04;20.90;;;16.20;;
67074;SDS011;53990;50.334;18.640;2023-07-02T01:56:31;20.40;;;15.90;;
67074;SDS011;53990;50.334;18.640;2023-07-02T01:58:58;21.70;;;15.80;;
67074;SDS011;53990;50.334;18.640;2023-07-02T02:01:25;20.30;;;16.50;;
67074;SDS011;53990;50.334;18.640;2023-07-02T02:03:52;22.40;;;15.70;;
67074;SDS011;53990;50.334;18.640;2023-07-02T02:06:19;20.00;;;15.50;;
67074;SDS011;53990;50.334;18.640;2023-07-02T02:08:45;17.60;;;13.70;;
67074;SDS011;53990;50.334;18.640;2023-07-02T02:11:12;18.50;;;14.40;;
67074;SDS011;53990;50.334;18.640;2023-07-02T02:13:39;19.30;;;15.80;;
67074;SDS011;53990;50.334;18.640;2023-07-02T02:16:06;22.60;;;16.70;;
67074;SDS011;53990;50.334;18.640;2023-07-02T02:18:32;18.80;;;14.80;;
67074;SDS011;53990;50.334;18.640;2023-07-02T02:20:59;23.40;;;15.90;;
67074;SDS011;53990;50.334;18.640;2023-07-02T02:23:26;19.90;;;15.50;;
67074;SDS011;53990;50.334;18.640;2023-07-02T02:25:53;17.50;;;14.30;;
67074;SDS011;53990;50.334;18.640;2023-07-02T02:28:19;20.90;;;16.20;;
67074;SDS011;53990;50.334;18.640;2023-07-02T02:30:46;19.50;;;15.20;;
67074;SDS011;53990;50.334;18.640;2023-07-02T02:33:13;20.60;;;15.80;;
67074;SDS011;53990;50.334;18.640;2023-07-02T02:35:39;20.80;;;15.50;;
67074;SDS011;53990;50.334;18.640;2023-07-02T02:38:06;21.90;;;15.50;;
67074;SDS011;53990;50.334;18.640;2023-07-02T02:40:33;22.30;;;15.70;;
67074;SDS011;53990;50.334;18.640;2023-07-02T02:43:01;22.50;;;17.00;;
67074;SDS011;53990;50.334;18.640;2023-07-02T02:45:27;22.60;;;17.20;;
67074;SDS011;53990;50.334;18.640;2023-07-02T02:47:55;21.00;;;15.90;;
67074;SDS011;53990;50.334;18.640;2023-07-02T02:50:22;21.90;;;16.40;;
67074;SDS011;53990;50.334;18.640;2023-07-02T02:52:49;19.90;;;15.30;;
67074;SDS011;53990;50.334;18.640;2023-07-02T02:55:16;20.60;;;15.60;;
67074;SDS011;53990;50.334;18.640;2023-07-02T02:57:43;19.10;;;15.70;;
67074;SDS011;53990;50.334;18.640;2023-07-02T03:00:10;21.40;;;16.80;;
67074;SDS011;53990;50.334;18.640;2023-07-02T03:02:38;24.30;;;16.20;;
67074;SDS011;53990;50.334;18.640;2023-07-02T03:05:06;22.10;;;16.90;;
67074;SDS011;53990;50.334;18.640;2023-07-02T03:07:33;20.30;;;15.30;;
67074;SDS011;53990;50.334;18.640;2023-07-02T03:10:00;19.70;;;15.30;;
67074;SDS011;53990;50.334;18.640;2023-07-02T03:12:26;20.80;;;16.20;;
67074;SDS011;53990;50.334;18.640;2023-07-02T03:14:53;20.90;;;15.00;;
67074;SDS011;53990;50.334;18.640;2023-07-02T03:17:25;24.40;;;16.90;;
67074;SDS011;53990;50.334;18.640;2023-07-02T03:19:52;24.30;;;16.20;;
67074;SDS011;53990;50.334;18.640;2023-07-02T03:22:19;19.10;;;15.40;;
67074;SDS011;53990;50.334;18.640;2023-07-02T03:24:46;20.90;;;15.60;;
67074;SDS011;53990;50.334;18.640;2023-07-02T03:27:12;21.70;;;14.70;;
67074;SDS011;53990;50.334;18.640;2023-07-02T03:29:39;17.60;;;14.40;;
67074;SDS011;53990;50.334;18.640;2023-07-02T03:32:06;20.10;;;15.10;;
67074;SDS011;53990;50.334;18.640;2023-07-02T03:34:33;21.90;;;14.90;;
67074;SDS011;53990;50.334;18.640;2023-07-02T03:37:00;21.50;;;15.70;;
67074;SDS011;53990;50.334;18.640;2023-07-02T03:39:27;20.30;;;15.40;;
67074;SDS011;53990;50.334;18.640;2023-07-02T03:41:53;16.60;;;12.60;;
67074;SDS011;53990;50.334;18.640;2023-07-02T03:44:20;18.80;;;13.80;;
67074;SDS011;53990;50.334;18.640;2023-07-02T03:46:47;16.50;;;12.90;;
67074;SDS011;53990;50.334;18.640;2023-07-02T03:49:13;17.90;;;12.50;;
67074;SDS011;53990;50.334;18.640;2023-07-02T03:51:40;16.20;;;11.90;;
67074;SDS011;53990;50.334;18.640;2023-07-02T03:54:07;16.40;;;11.20;;
67074;SDS011;53990;50.334;18.640;2023-07-02T03:56:33;17.30;;;11.80;;
67074;SDS011;53990;50.334;18.640;2023-07-02T03:59:00;17.20;;;12.20;;
67074;SDS011;53990;50.334;18.640;2023-07-02T04:01:27;15.80;;;11.60;;
67074;SDS011;53990;50.334;18.640;2023-07-02T04:03:56;15.30;;;12.10;;
67074;SDS011;53990;50.334;18.640;2023-07-02T04:06:23;17.00;;;12.10;;
67074;SDS011;53990;50.334;18.640;2023-07-02T04:08:49;18.70;;;12.80;;
67074;SDS011;53990;50.334;18.640;2023-07-02T04:11:16;17.50;;;12.70;;
67074;SDS011;53990;50.334;18.640;2023-07-02T04:13:43;16.90;;;12.00;;
67074;SDS011;53990;50.334;18.640;2023-07-02T04:16:10;17.60;;;12.20;;
67074;SDS011;53990;50.334;18.640;2023-07-02T04:18:36;16.90;;;11.60;;
67074;SDS011;53990;50.334;18.640;2023-07-02T04:21:03;15.20;;;11.40;;
67074;SDS011;53990;50.334;18.640;2023-07-02T04:23:30;16.10;;;12.10;;
67074;SDS011;53990;50.334;18.640;2023-07-02T04:25:57;19.90;;;11.80;;
67074;SDS011;53990;50.334;18.640;2023-07-02T04:28:25;13.90;;;11.00;;
67074;SDS011;53990;50.334;18.640;2023-07-02T04:30:52;14.80;;;10.80;;
67074;SDS011;53990;50.334;18.640;2023-07-02T04:33:19;16.30;;;10.30;;
67074;SDS011;53990;50.334;18.640;2023-07-02T04:35:47;15.00;;;9.60;;
67074;SDS011;53990;50.334;18.640;2023-07-02T04:38:14;12.30;;;10.10;;
67074;SDS011;53990;50.334;18.640;2023-07-02T04:40:41;12.30;;;9.60;;
67074;SDS011;53990;50.334;18.640;2023-07-02T04:43:11;12.00;;;10.00;;
67074;SDS011;53990;50.334;18.640;2023-07-02T04:45:38;13.70;;;10.20;;
67074;SDS011;53990;50.334;18.640;2023-07-02T04:48:06;14.70;;;10.60;;
67074;SDS011;53990;50.334;18.640;2023-07-02T04:50:33;12.60;;;9.70;;
67074;SDS011;53990;50.334;18.640;2023-07-02T04:52:59;11.50;;;9.10;;
67074;SDS011;53990;50.334;18.640;2023-07-02T04:55:27;13.50;;;9.20;;
67074;SDS011;53990;50.334;18.640;2023-07-02T04:57:53;15.10;;;9.90;;
67074;SDS011;53990;50.334;18.640;2023-07-02T05:00:20;16.20;;;9.40;;
67074;SDS011;53990;50.334;18.640;2023-07-02T05:02:48;13.10;;;9.00;;
67074;SDS011;53990;50.334;18.640;2023-07-02T05:05:16;11.00;;;8.50;;
67074;SDS011;53990;50.334;18.640;2023-07-02T05:07:44;10.50;;;8.40;;
67074;SDS011;53990;50.334;18.640;2023-07-02T05:10:11;11.30;;;9.30;;
67074;SDS011;53990;50.334;18.640;2023-07-02T05:12:37;13.00;;;9.20;;
67074;SDS011;53990;50.334;18.640;2023-07-02T05:15:05;12.10;;;7.90;;
67074;SDS011;53990;50.334;18.640;2023-07-02T05:17:32;11.90;;;7.80;;
67074;SDS011;53990;50.334;18.640;2023-07-02T05:20:02;9.90;;;8.00;;
67074;SDS011;53990;50.334;18.640;2023-07-02T05:22:31;11.90;;;8.40;;
67074;SDS011;53990;50.334;18.640;2023-07-02T05:24:58;12.90;;;8.50;;
67074;SDS011;53990;50.334;18.640;2023-07-02T05:27:24;13.50;;;8.40;;
67074;SDS011;53990;50.334;18.640;2023-07-02T05:29:51;15.00;;;8.30;;
67074;SDS011;53990;50.334;18.640;2023-07-02T05:32:18;10.80;;;7.80;;
67074;SDS011;53990;50.334;18.640;2023-07-02T05:34:45;10.30;;;7.50;;
67074;SDS011;53990;50.334;18.640;2023-07-02T05:37:12;10.60;;;7.90;;
67074;SDS011;53990;50.334;18.640;2023-07-02T05:39:38;11.10;;;7.50;;
67074;SDS011;53990;50.334;18.640;2023-07-02T05:42:05;11.10;;;7.70;;
67074;SDS011;53990;50.334;18.640;2023-07-02T05:44:32;10.80;;;6.90;;
67074;SDS011;53990;50.334;18.640;2023-07-02T05:46:58;10.30;;;6.30;;
67074;SDS011;53990;50.334;18.640;2023-07-02T05:49:25;11.60;;;6.80;;
67074;SDS011;53990;50.334;18.640;2023-07-02T05:51:52;8.00;;;6.20;;
67074;SDS011;53990;50.334;18.640;2023-07-02T05:54:19;9.90;;;7.20;;
67074;SDS011;53990;50.334;18.640;2023-07-02T05:56:46;10.70;;;6.80;;
67074;SDS011;53990;50.334;18.640;2023-07-02T05:59:13;10.20;;;6.10;;
67074;SDS011;53990;50.334;18.640;2023-07-02T06:01:45;9.70;;;5.30;;
67074;SDS011;53990;50.334;18.640;2023-07-02T06:04:11;8.80;;;5.80;;
67074;SDS011;53990;50.334;18.640;2023-07-02T06:06:38;9.40;;;5.50;;
67074;SDS011;53990;50.334;18.640;2023-07-02T06:09:05;7.70;;;5.70;;
67074;SDS011;53990;50.334;18.640;2023-07-02T06:11:31;7.40;;;5.20;;
67074;SDS011;53990;50.334;18.640;2023-07-02T06:13:58;8.40;;;6.30;;
67074;SDS011;53990;50.334;18.640;2023-07-02T06:16:25;8.20;;;5.70;;
67074;SDS011;53990;50.334;18.640;2023-07-02T06:18:52;10.50;;;5.90;;
67074;SDS011;53990;50.334;18.640;2023-07-02T06:21:18;7.90;;;6.00;;
67074;SDS011;53990;50.334;18.640;2023-07-02T06:23:46;7.70;;;5.60;;
67074;SDS011;53990;50.334;18.640;2023-07-02T06:26:12;10.10;;;6.10;;
67074;SDS011;53990;50.334;18.640;2023-07-02T06:28:39;8.00;;;5.40;;
67074;SDS011;53990;50.334;18.640;2023-07-02T06:31:06;7.90;;;5.90;;
67074;SDS011;53990;50.334;18.640;2023-07-02T06:33:33;8.10;;;5.30;;
67074;SDS011;53990;50.334;18.640;2023-07-02T06:35:59;12.10;;;8.90;;
67074;SDS011;53990;50.334;18.640;2023-07-02T06:38:26;8.60;;;6.00;;
67074;SDS011;53990;50.334;18.640;2023-07-02T06:40:53;9.40;;;5.70;;
67074;SDS011;53990;50.334;18.640;2023-07-02T06:43:19;8.90;;;5.80;;
67074;SDS011;53990;50.334;18.640;2023-07-02T06:45:46;10.00;;;5.70;;
67074;SDS011;53990;50.334;18.640;2023-07-02T06:48:13;8.20;;;5.50;;
67074;SDS011;53990;50.334;18.640;2023-07-02T06:50:45;8.70;;;5.60;;
67074;SDS011;53990;50.334;18.640;2023-07-02T06:53:12;7.80;;;5.10;;
67074;SDS011;53990;50.334;18.640;2023-07-02T06:55:39;7.40;;;4.90;;
67074;SDS011;53990;50.334;18.640;2023-07-02T06:58:06;7.00;;;5.10;;
67074;SDS011;53990;50.334;18.640;2023-07-02T07:00:33;8.80;;;5.30;;
67074;SDS011;53990;50.334;18.640;2023-07-02T07:03:05;7.30;;;5.10;;
67074;SDS011;53990;50.334;18.640;2023-07-02T07:05:32;7.00;;;5.30;;
67074;SDS011;53990;50.334;18.640;2023-07-02T07:08:00;8.70;;;5.40;;
67074;SDS011;53990;50.334;18.640;2023-07-02T07:10:27;7.40;;;5.10;;
67074;SDS011;53990;50.334;18.640;2023-07-02T07:12:54;10.90;;;5.80;;
67074;SDS011;53990;50.334;18.640;2023-07-02T07:15:21;11.80;;;6.20;;
67074;SDS011;53990;50.334;18.640;2023-07-02T07:17:48;8.80;;;6.20;;
67074;SDS011;53990;50.334;18.640;2023-07-02T07:20:15;8.60;;;5.80;;
67074;SDS011;53990;50.334;18.640;2023-07-02T07:22:41;9.90;;;6.40;;
67074;SDS011;53990;50.334;18.640;2023-07-02T07:25:08;9.10;;;6.70;;
67074;SDS011;53990;50.334;18.640;2023-07-02T07:27:35;9.60;;;6.70;;
67074;SDS011;53990;50.334;18.640;2023-07-02T07:30:02;14.40;;;7.40;;
67074;SDS011;53990;50.334;18.640;2023-07-02T07:32:29;10.60;;;7.20;;
67074;SDS011;53990;50.334;18.640;2023-07-02T07:34:56;9.30;;;6.60;;
67074;SDS011;53990;50.334;18.640;2023-07-02T07:37:24;9.50;;;5.80;;
67074;SDS011;53990;50.334;18.640;2023-07-02T07:39:52;7.00;;;5.40;;
67074;SDS011;53990;50.334;18.640;2023-07-02T07:42:19;6.80;;;5.00;;
67074;SDS011;53990;50.334;18.640;2023-07-02T07:44:46;7.40;;;5.10;;
67074;SDS011;53990;50.334;18.640;2023-07-02T07:47:13;7.80;;;5.40;;
67074;SDS011;53990;50.334;18.640;2023-07-02T07:49:41;7.50;;;5.30;;
67074;SDS011;53990;50.334;18.640;2023-07-02T07:52:08;7.40;;;5.40;;
67074;SDS011;53990;50.334;18.640;2023-07-02T07:54:35;10.20;;;5.80;;
67074;SDS011;53990;50.334;18.640;2023-07-02T07:57:04;11.30;;;6.80;;
67074;SDS011;53990;50.334;18.640;2023-07-02T07:59:32;9.30;;;6.50;;
67074;SDS011;53990;50.334;18.640;2023-07-02T08:02:03;10.70;;;7.00;;
67074;SDS011;53990;50.334;18.640;2023-07-02T08:04:30;11.20;;;7.10;;
67074;SDS011;53990;50.334;18.640;2023-07-02T08:06:59;11.70;;;7.20;;
67074;SDS011;53990;50.334;18.640;2023-07-02T08:09:31;11.40;;;8.30;;
67074;SDS011;53990;50.334;18.640;2023-07-02T08:12:16;12.80;;;9.00;;
67074;SDS011;53990;50.334;18.640;2023-07-02T08:14:43;13.00;;;9.30;;
67074;SDS011;53990;50.334;18.640;2023-07-02T08:17:10;13.70;;;9.20;;
67074;SDS011;53990;50.334;18.640;2023-07-02T08:19:37;11.80;;;8.50;;
67074;SDS011;53990;50.334;18.640;2023-07-02T08:22:04;13.10;;;8.80;;
67074;SDS011;53990;50.334;18.640;2023-07-02T08:24:31;12.60;;;8.50;;
67074;SDS011;53990;50.334;18.640;2023-07-02T08:26:59;13.30;;;8.20;;
67074;SDS011;53990;50.334;18.640;2023-07-02T08:29:29;12.00;;;8.30;;
67074;SDS011;53990;50.334;18.640;2023-07-02T08:31:57;13.90;;;8.80;;
67074;SDS011;53990;50.334;18.640;2023-07-02T08:34:24;11.50;;;8.20;;
67074;SDS011;53990;50.334;18.640;2023-07-02T08:36:51;12.80;;;7.70;;
67074;SDS011;53990;50.334;18.640;2023-07-02T08:39:18;10.90;;;7.80;;
67074;SDS011;53990;50.334;18.640;2023-07-02T08:41:46;13.60;;;8.20;;
67074;SDS011;53990;50.334;18.640;2023-07-02T08:44:13;11.30;;;7.90;;
67074;SDS011;53990;50.334;18.640;2023-07-02T08:46:42;13.00;;;8.30;;
67074;SDS011;53990;50.334;18.640;2023-07-02T08:49:09;11.10;;;7.80;;
67074;SDS011;53990;50.334;18.640;2023-07-02T08:51:36;14.00;;;7.90;;
67074;SDS011;53990;50.334;18.640;2023-07-02T08:54:03;12.20;;;7.30;;
67074;SDS011;53990;50.334;18.640;2023-07-02T08:56:30;12.60;;;6.80;;
67074;SDS011;53990;50.334;18.640;2023-07-02T08:58:57;9.50;;;6.90;;
67074;SDS011;53990;50.334;18.640;2023-07-02T09:01:24;11.50;;;6.50;;
67074;SDS011;53990;50.334;18.640;2023-07-02T09:03:51;9.60;;;6.20;;
67074;SDS011;53990;50.334;18.640;2023-07-02T09:06:18;13.30;;;7.90;;
67074;SDS011;53990;50.334;18.640;2023-07-02T09:08:45;9.90;;;6.90;;
67074;SDS011;53990;50.334;18.640;2023-07-02T09:11:16;11.00;;;7.00;;
67074;SDS011;53990;50.334;18.640;2023-07-02T09:13:46;10.90;;;7.20;;
67074;SDS011;53990;50.334;18.640;2023-07-02T09:16:26;11.30;;;6.90;;
67074;SDS011;53990;50.334;18.640;2023-07-02T09:19:05;11.50;;;7.00;;
67074;SDS011;53990;50.334;18.640;2023-07-02T09:21:44;9.50;;;6.60;;
67074;SDS011;53990;50.334;18.640;2023-07-02T09:24:22;11.90;;;6.70;;
67074;SDS011;53990;50.334;18.640;2023-07-02T09:26:51;10.00;;;7.00;;
67074;SDS011;53990;50.334;18.640;2023-07-02T09:29:30;9.20;;;6.40;;
67074;SDS011;53990;50.334;18.640;2023-07-02T09:32:04;10.90;;;6.80;;
67074;SDS011;53990;50.334;18.640;2023-07-02T09:34:36;9.10;;;6.20;;
67074;SDS011;53990;50.334;18.640;2023-07-02T09:37:04;9.80;;;6.30;;
67074;SDS011;53990;50.334;18.640;2023-07-02T09:39:35;9.20;;;6.20;;
67074;SDS011;53990;50.334;18.640;2023-07-02T09:42:06;8.70;;;6.20;;
67074;SDS011;53990;50.334;18.640;2023-07-02T09:44:34;9.10;;;6.50;;
67074;SDS011;53990;50.334;18.640;2023-07-02T09:47:06;6.30;;;5.30;;
67074;SDS011;53990;50.334;18.640;2023-07-02T09:49:34;8.30;;;6.50;;
67074;SDS011;53990;50.334;18.640;2023-07-02T09:52:06;10.50;;;7.30;;
67074;SDS011;53990;50.334;18.640;2023-07-02T09:54:33;13.60;;;9.90;;
67074;SDS011;53990;50.334;18.640;2023-07-02T09:57:01;13.00;;;9.70;;
67074;SDS011;53990;50.334;18.640;2023-07-02T09:59:28;10.60;;;9.40;;
67074;SDS011;53990;50.334;18.640;2023-07-02T10:01:56;8.70;;;7.80;;
67074;SDS011;53990;50.334;18.640;2023-07-02T10:04:23;12.60;;;9.10;;
67074;SDS011;53990;50.334;18.640;2023-07-02T10:06:52;10.30;;;9.10;;
67074;SDS011;53990;50.334;18.640;2023-07-02T10:09:20;11.20;;;7.50;;
67074;SDS011;53990;50.334;18.640;2023-07-02T10:11:47;8.00;;;6.90;;
67074;SDS011;53990;50.334;18.640;2023-07-02T10:14:14;10.10;;;7.80;;
67074;SDS011;53990;50.334;18.640;2023-07-02T10:16:52;7.30;;;5.70;;
67074;SDS011;53990;50.334;18.640;2023-07-02T10:19:19;10.60;;;5.80;;
67074;SDS011;53990;50.334;18.640;2023-07-02T10:22:00;6.90;;;4.90;;
67074;SDS011;53990;50.334;18.640;2023-07-02T10:24:27;6.60;;;4.70;;
67074;SDS011;53990;50.334;18.640;2023-07-02T10:27:00;7.70;;;4.40;;
67074;SDS011;53990;50.334;18.640;2023-07-02T10:29:28;5.80;;;4.10;;
67074;SDS011;53990;50.334;18.640;2023-07-02T10:31:56;5.50;;;3.90;;
67074;SDS011;53990;50.334;18.640;2023-07-02T10:34:34;6.00;;;4.00;;
67074;SDS011;53990;50.334;18.640;2023-07-02T10:37:02;5.30;;;4.00;;
67074;SDS011;53990;50.334;18.640;2023-07-02T10:39:30;7.10;;;4.10;;
67074;SDS011;53990;50.334;18.640;2023-07-02T10:42:08;6.30;;;5.20;;
67074;SDS011;53990;50.334;18.640;2023-07-02T10:44:50;7.30;;;3.70;;
67074;SDS011;53990;50.334;18.640;2023-07-02T10:47:17;5.40;;;4.00;;
67074;SDS011;53990;50.334;18.640;2023-07-02T10:49:45;4.40;;;2.90;;
67074;SDS011;53990;50.334;18.640;2023-07-02T10:52:12;4.10;;;3.00;;
67074;SDS011;53990;50.334;18.640;2023-07-02T10:54:40;5.40;;;2.80;;
67074;SDS011;53990;50.334;18.640;2023-07-02T10:57:09;4.40;;;3.60;;
67074;SDS011;53990;50.334;18.640;2023-07-02T10:59:36;5.60;;;3.00;;
67074;SDS011;53990;50.334;18.640;2023-07-02T11:02:03;4.40;;;3.20;;
67074;SDS011;53990;50.334;18.640;2023-07-02T11:04:31;5.60;;;4.00;;
67074;SDS011;53990;50.334;18.640;2023-07-02T11:06:58;5.60;;;4.00;;
67074;SDS011;53990;50.334;18.640;2023-07-02T11:09:25;5.20;;;3.90;;
67074;SDS011;53990;50.334;18.640;2023-07-02T11:11:53;5.60;;;3.50;;
67074;SDS011;53990;50.334;18.640;2023-07-02T11:14:30;5.30;;;4.20;;
67074;SDS011;53990;50.334;18.640;2023-07-02T11:16:58;5.80;;;4.10;;
67074;SDS011;53990;50.334;18.640;2023-07-02T11:19:25;5.10;;;4.20;;
67074;SDS011;53990;50.334;18.640;2023-07-02T11:21:54;7.80;;;4.30;;
67074;SDS011;53990;50.334;18.640;2023-07-02T11:24:41;5.60;;;3.90;;
67074;SDS011;53990;50.334;18.640;2023-07-02T11:27:08;6.40;;;3.60;;
67074;SDS011;53990;50.334;18.640;2023-07-02T11:29:36;5.50;;;4.00;;
67074;SDS011;53990;50.334;18.640;2023-07-02T11:32:11;6.80;;;3.70;;
67074;SDS011;53990;50.334;18.640;2023-07-02T11:34:39;6.80;;;3.70;;
67074;SDS011;53990;50.334;18.640;2023-07-02T11:37:05;6.40;;;3.50;;
67074;SDS011;53990;50.334;18.640;2023-07-02T11:39:32;4.50;;;2.80;;
67074;SDS011;53990;50.334;18.640;2023-07-02T11:41:59;4.80;;;3.20;;
67074;SDS011;53990;50.334;18.640;2023-07-02T11:44:25;4.20;;;1.30;;
67074;SDS011;53990;50.334;18.640;2023-07-02T11:46:52;3.60;;;1.10;;
67074;SDS011;53990;50.334;18.640;2023-07-02T11:49:19;1.80;;;1.10;;
67074;SDS011;53990;50.334;18.640;2023-07-02T11:51:46;5.60;;;1.60;;
67074;SDS011;53990;50.334;18.640;2023-07-02T11:54:16;6.50;;;1.90;;
67074;SDS011;53990;50.334;18.640;2023-07-02T11:56:45;3.80;;;1.60;;
67074;SDS011;53990;50.334;18.640;2023-07-02T11:59:12;5.80;;;1.70;;
67074;SDS011;53990;50.334;18.640;2023-07-02T12:01:39;4.10;;;1.50;;
67074;SDS011;53990;50.334;18.640;2023-07-02T12:04:06;3.10;;;1.60;;
67074;SDS011;53990;50.334;18.640;2023-07-02T12:06:34;8.40;;;4.40;;
67074;SDS011;53990;50.334;18.640;2023-07-02T12:09:00;4.90;;;2.50;;
67074;SDS011;53990;50.334;18.640;2023-07-02T12:11:30;5.20;;;1.80;;
67074;SDS011;53990;50.334;18.640;2023-07-02T12:13:57;2.60;;;1.60;;
67074;SDS011;53990;50.334;18.640;2023-07-02T12:16:23;2.90;;;1.60;;
67074;SDS011;53990;50.334;18.640;2023-07-02T12:18:50;3.40;;;1.70;;
67074;SDS011;53990;50.334;18.640;2023-07-02T12:21:17;6.50;;;4.70;;
67074;SDS011;53990;50.334;18.640;2023-07-02T12:23:45;4.70;;;2.70;;
67074;SDS011;53990;50.334;18.640;2023-07-02T12:26:12;3.40;;;2.20;;
67074;SDS011;53990;50.334;18.640;2023-07-02T12:28:38;3.70;;;2.30;;
67074;SDS011;53990;50.334;18.640;2023-07-02T12:31:05;3.30;;;2.10;;
67074;SDS011;53990;50.334;18.640;2023-07-02T12:33:32;6.90;;;2.20;;
67074;SDS011;53990;50.334;18.640;2023-07-02T12:35:59;5.20;;;2.40;;
67074;SDS011;53990;50.334;18.640;2023-07-02T12:38:26;4.00;;;2.80;;
67074;SDS011;53990;50.334;18.640;2023-07-02T12:40:52;5.00;;;2.40;;
67074;SDS011;53990;50.334;18.640;2023-07-02T12:43:21;3.60;;;2.50;;
67074;SDS011;53990;50.334;18.640;2023-07-02T12:45:48;3.50;;;2.50;;
67074;SDS011;53990;50.334;18.640;2023-07-02T12:48:15;4.70;;;2.90;;
67074;SDS011;53990;50.334;18.640;2023-07-02T12:50:42;4.10;;;2.50;;
67074;SDS011;53990;50.334;18.640;2023-07-02T12:53:21;4.80;;;3.00;;
67074;SDS011;53990;50.334;18.640;2023-07-02T12:55:47;3.70;;;2.80;;
67074;SDS011;53990;50.334;18.640;2023-07-02T12:58:14;5.30;;;3.10;;
67074;SDS011;53990;50.334;18.640;2023-07-02T13:00:41;4.10;;;2.90;;
67074;SDS011;53990;50.334;18.640;2023-07-02T13:03:12;5.30;;;3.40;;
67074;SDS011;53990;50.334;18.640;2023-07-02T13:05:42;3.40;;;2.70;;
67074;SDS011;53990;50.334;18.640;2023-07-02T13:08:10;3.20;;;2.50;;
67074;SDS011;53990;50.334;18.640;2023-07-02T13:10:37;3.60;;;2.80;;
67074;SDS011;53990;50.334;18.640;2023-07-02T13:13:03;4.40;;;2.60;;
67074;SDS011;53990;50.334;18.640;2023-07-02T13:15:31;5.00;;;3.00;;
67074;SDS011;53990;50.334;18.640;2023-07-02T13:17:58;4.40;;;3.20;;
67074;SDS011;53990;50.334;18.640;2023-07-02T13:20:24;6.30;;;3.10;;
67074;SDS011;53990;50.334;18.640;2023-07-02T13:22:51;5.20;;;3.90;;
67074;SDS011;53990;50.334;18.640;2023-07-02T13:25:18;5.90;;;4.00;;
67074;SDS011;53990;50.334;18.640;2023-07-02T13:27:45;4.40;;;3.00;;
67074;SDS011;53990;50.334;18.640;2023-07-02T13:30:12;5.30;;;4.40;;
67074;SDS011;53990;50.334;18.640;2023-07-02T13:32:38;4.00;;;3.00;;
67074;SDS011;53990;50.334;18.640;2023-07-02T13:35:05;4.20;;;3.20;;
67074;SDS011;53990;50.334;18.640;2023-07-02T13:37:32;4.70;;;3.10;;
67074;SDS011;53990;50.334;18.640;2023-07-02T13:39:59;4.90;;;2.90;;
67074;SDS011;53990;50.334;18.640;2023-07-02T13:42:26;3.60;;;2.40;;
67074;SDS011;53990;50.334;18.640;2023-07-02T13:44:53;3.20;;;2.60;;
67074;SDS011;53990;50.334;18.640;2023-07-02T13:47:19;4.40;;;2.50;;
67074;SDS011;53990;50.334;18.640;2023-07-02T13:49:46;5.10;;;2.00;;
67074;SDS011;53990;50.334;18.640;2023-07-02T13:52:13;5.30;;;2.30;;
67074;SDS011;53990;50.334;18.640;2023-07-02T13:54:39;3.30;;;2.10;;
67074;SDS011;53990;50.334;18.640;2023-07-02T13:57:06;4.90;;;1.80;;
67074;SDS011;53990;50.334;18.640;2023-07-02T13:59:33;3.50;;;1.40;;
67074;SDS011;53990;50.334;18.640;2023-07-02T14:01:59;3.00;;;1.60;;
67074;SDS011;53990;50.334;18.640;2023-07-02T14:04:26;2.50;;;1.30;;
67074;SDS011;53990;50.334;18.640;2023-07-02T14:06:53;6.40;;;1.90;;
67074;SDS011;53990;50.334;18.640;2023-07-02T14:09:20;2.70;;;1.70;;
67074;SDS011;53990;50.334;18.640;2023-07-02T14:11:47;3.30;;;1.50;;
67074;SDS011;53990;50.334;18.640;2023-07-02T14:14:13;3.90;;;1.60;;
67074;SDS011;53990;50.334;18.640;2023-07-02T14:16:40;5.10;;;1.60;;
67074;SDS011;53990;50.334;18.640;2023-07-02T14:19:07;4.10;;;1.60;;
67074;SDS011;53990;50.334;18.640;2023-07-02T14:21:34;2.40;;;1.30;;
67074;SDS011;53990;50.334;18.640;2023-07-02T14:24:00;3.20;;;1.70;;
67074;SDS011;53990;50.334;18.640;2023-07-02T14:26:27;2.60;;;1.40;;
67074;SDS011;53990;50.334;18.640;2023-07-02T14:28:54;3.10;;;1.50;;